Time;durP1;ratioP1;P1;durP2;ratioP2;P2;SDS_P1;SDS_P2;PMS_P1;PMS_P2;Temp;Humidity;BMP_temperature;BMP_pressure;BME280_temperature;BME280_humidity;BME280_pressure;Samples;Min_cycle;Max_cycle;Signal;HPM_P1;HPM_P2
2022/12/27 00:01:10;;;;;;;;;;;;;;;;;;4863274;29;19927;-89
2022/12/27 00:03:35;;;;;;;;;;;;;;;;;;4846418;29;20007;-88
2022/12/27 00:06:05;;;;;;;;;;;;;;;;;;4846446;29;19977;-90
2022/12/27 00:08:30;;;;;;;;;;;;;;;;;;4846441;29;20372;-88
2022/12/27 00:10:55;;;;;;;;;;;;;;;;;;4846374;29;19920;-89
2022/12/27 00:13:22;;;;;;;;;;;;;;;;;;4846314;29;19924;-91
2022/12/27 00:15:48;;;;;;;;;;;;;;;;;;4846327;29;20289;-90
2022/12/27 00:18:13;;;;;;;;;;;;;;;;;;4845340;29;19920;-90
2022/12/27 00:20:38;;;;;;;;;;;;;;;;;;4862871;29;19927;-91
2022/12/27 00:23:05;;;;;;;;;;;;;;;;;;4846185;29;19920;-90
2022/12/27 00:25:31;;;;;;;;;;;;;;;;;;4846136;29;19920;-90
2022/12/27 00:30:31;;;;;;;;;;;;;;;;;;4904073;23;19929;-91
2022/12/27 00:32:57;;;;;;;;;;;;;;;;;;4843319;29;19931;-91
2022/12/27 00:35:22;;;;;;;;;;;;;;;;;;4828326;29;19920;-92
2022/12/27 00:37:47;;;;;;;;;;;;;;;;;;4828105;29;19924;-92
2022/12/27 00:40:13;;;;;;;;;;;;;;;;;;4845143;29;19975;-92
2022/12/27 00:42:38;;;;;;;;;;;;;;;;;;4844512;29;20011;-91
2022/12/27 00:45:04;;;;;;;;;;;;;;;;;;4844457;29;19925;-91
2022/12/27 00:47:30;;;;;;;;;;;;;;;;;;4844047;29;19920;-91
2022/12/27 00:49:55;;;;;;;;;;;;;;;;;;4843958;29;20329;-91
2022/12/27 00:52:20;;;;;;;;;;;;;;;;;;4844027;29;19924;-92
2022/12/27 00:54:46;;;;;;;;;;;;;;;;;;4827621;29;19943;-92
2022/12/27 00:57:11;;;;;;;;;;;;;;;;;;4844029;29;19921;-91
2022/12/27 00:59:36;;;;;;;;;;;;;;;;;;4843937;29;19959;-92
2022/12/27 01:02:02;;;;;;;;;;;;;;;;;;4827532;29;19924;-91
2022/12/27 01:04:27;;;;;;;;;;;;;;;;;;4827825;29;19928;-92
2022/12/27 01:06:53;;;;;;;;;;;;;;;;;;4844124;29;19927;-92
2022/12/27 01:09:18;;;;;;;;;;;;;;;;;;4827588;29;19987;-92
2022/12/27 01:11:43;;;;;;;;;;;;;;;;;;4827367;29;19921;-94
2022/12/27 01:14:09;;;;;;;;;;;;;;;;;;4844039;29;20284;-93
2022/12/27 01:16:34;;;;;;;;;;;;;;;;;;4827623;29;19920;-92
2022/12/27 01:19:00;;;;;;;;;;;;;;;;;;4843354;29;19966;-93
2022/12/27 01:21:29;;;;;;;;;;;;;;;;;;4843746;29;19921;-91
2022/12/27 01:23:54;;;;;;;;;;;;;;;;;;4843744;29;20337;-93
2022/12/27 01:26:20;;;;;;;;;;;;;;;;;;4827355;29;19920;-93
2022/12/27 01:28:47;;;;;;;;;;;;;;;;;;4843331;29;19925;-91
2022/12/27 01:31:13;;;;;;;;;;;;;;;;;;4827201;29;19921;-92
2022/12/27 01:33:39;;;;;;;;;;;;;;;;;;4827324;29;19927;-93
2022/12/27 01:36:13;;;;;;;;;;;;;;;;;;4827061;29;20293;-92
2022/12/27 01:38:41;;;;;;;;;;;;;;;;;;4843368;29;19960;-91
2022/12/27 01:42:50;;;;;;;;;;;;;;;;;;4843364;29;19920;-92
2022/12/27 01:43:55;;;;;;;;;;;;;;;;;;4843405;29;19977;-92
2022/12/27 01:46:20;;;;;;;;;;;;;;;;;;4843313;29;19925;-92
2022/12/27 01:48:45;;;;;;;;;;;;;;;;;;4843583;29;19916;-93
2022/12/27 01:51:11;;;;;;;;;;;;;;;;;;4843308;29;20019;-91
2022/12/27 01:53:38;;;;;;;;;;;;;;;;;;4843404;29;20300;-91
2022/12/27 01:56:07;;;;;;;;;;;;;;;;;;4827019;29;19921;-90
2022/12/27 01:58:53;;;;;;;;;;;;;;;;;;4826882;29;19920;-92
2022/12/27 02:01:36;;;;;;;;;;;;;;;;;;4843520;29;19954;-92
2022/12/27 02:04:06;;;;;;;;;;;;;;;;;;4826755;29;19920;-92
2022/12/27 02:06:33;;;;;;;;;;;;;;;;;;4843189;29;19920;-92
2022/12/27 02:09:06;;;;;;;;;;;;;;;;;;4826812;29;19925;-92
2022/12/27 02:11:52;;;;;;;;;;;;;;;;;;4826960;29;19927;-93
2022/12/27 02:14:20;;;;;;;;;;;;;;;;;;4866681;29;19909;-92
2022/12/27 02:16:45;;;;;;;;;;;;;;;;;;4851098;29;19909;-90
2022/12/27 02:19:16;;;;;;;;;;;;;;;;;;4871214;29;19915;-90
2022/12/27 02:22:08;;;;;;;;;;;;;;;;;;4857871;29;19924;-89
2022/12/27 02:24:45;;;;;;;;;;;;;;;;;;4806491;29;19933;-90
2022/12/27 02:27:14;;;;;;;;;;;;;;;;;;4843481;29;19951;-90
2022/12/27 02:29:45;;;;;;;;;;;;;;;;;;4841911;29;20004;-91
2022/12/27 02:32:34;;;;;;;;;;;;;;;;;;4841749;29;19920;-91
2022/12/27 02:35:02;;;;;;;;;;;;;;;;;;4819199;29;19921;-90
2022/12/27 02:37:30;;;;;;;;;;;;;;;;;;4842908;29;19920;-89
2022/12/27 02:53:02;;;;;;;;;;;;;;;;;;4826478;29;19924;-89
2022/12/27 02:54:07;;;;;;;;;;;;;;;;;;4846759;29;19927;-91
2022/12/27 03:03:24;;;;;;;;;;;;;;;;;;4824933;29;20003;-90
2022/12/27 03:06:38;;;;;;;;;;;;;;;;;;4846233;29;19920;-89
2022/12/27 03:08:41;;;;;;;;;;;;;;;;;;4845630;29;19950;-89
2022/12/27 03:16:54;;;;;;;;;;;;;;;;;;4845691;29;19924;-90
2022/12/27 03:27:40;;;;;;;;;;;;;;;;;;4845579;29;19979;-91
2022/12/27 03:33:14;;;;;;;;;;;;;;;;;;4845997;29;19928;-90
2022/12/27 03:35:40;;;;;;;;;;;;;;;;;;4828851;29;20019;-90
2022/12/27 03:38:06;;;;;;;;;;;;;;;;;;4844063;29;20465;-89
2022/12/27 03:40:33;;;;;;;;;;;;;;;;;;4845380;29;19927;-91
2022/12/27 03:43:11;;;;;;;;;;;;;;;;;;4845811;29;19981;-92
2022/12/27 03:48:55;;;;;;;;;;;;;;;;;;4845166;29;19932;-91
2022/12/27 03:51:22;;;;;;;;;;;;;;;;;;4828740;29;19920;-90
2022/12/27 03:53:49;;;;;;;;;;;;;;;;;;4827483;29;20296;-92
2022/12/27 03:56:15;;;;;;;;;;;;;;;;;;4828369;29;19921;-91
2022/12/27 03:58:41;;;;;;;;;;;;;;;;;;4828360;29;20388;-91
2022/12/27 04:01:06;;;;;;;;;;;;;;;;;;4828419;29;19920;-92
2022/12/27 04:03:31;;;;;;;;;;;;;;;;;;4845000;29;19916;-90
2022/12/27 04:05:57;;;;;;;;;;;;;;;;;;4828359;29;19973;-90
2022/12/27 04:35:41;;;;;;;;;;;;;;;;;;4844570;29;19923;-91
2022/12/27 04:38:07;;;;;;;;;;;;;;;;;;4844280;29;19920;-94
2022/12/27 04:57:05;;;;;;;;;;;;;;;;;;4844221;29;20384;-92
2022/12/27 05:02:15;;;;;;;;;;;;;;;;;;4844400;29;19948;-91
2022/12/27 05:04:41;;;;;;;;;;;;;;;;;;4843755;29;19921;-91
2022/12/27 05:15:18;;;;;;;;;;;;;;;;;;4844140;29;19931;-92
2022/12/27 05:17:44;;;;;;;;;;;;;;;;;;4843723;29;20297;-91
2022/12/27 05:20:10;;;;;;;;;;;;;;;;;;4843898;29;20368;-92
2022/12/27 05:25:34;;;;;;;;;;;;;;;;;;4843918;29;19932;-91
2022/12/27 05:28:09;;;;;;;;;;;;;;;;;;4843784;29;19968;-91
2022/12/27 05:30:36;;;;;;;;;;;;;;;;;;4827129;29;19928;-92
2022/12/27 05:33:02;;;;;;;;;;;;;;;;;;4843478;29;19921;-92
2022/12/27 05:35:27;;;;;;;;;;;;;;;;;;4827173;29;20060;-91
2022/12/27 05:37:54;;;;;;;;;;;;;;;;;;4843541;29;20019;-91
2022/12/27 05:40:19;;;;;;;;;;;;;;;;;;4843548;29;19931;-91
2022/12/27 05:42:45;;;;;;;;;;;;;;;;;;4843411;29;20280;-91
2022/12/27 05:45:11;;;;;;;;;;;;;;;;;;4843445;29;20426;-91
2022/12/27 05:47:36;;;;;;;;;;;;;;;;;;4827327;29;19920;-91
2022/12/27 05:50:02;;;;;;;;;;;;;;;;;;4827281;29;20058;-92
2022/12/27 05:52:28;;;;;;;;;;;;;;;;;;4827125;29;20377;-91
2022/12/27 05:54:54;;;;;;;;;;;;;;;;;;4843580;29;20433;-91
2022/12/27 05:57:19;;;;;;;;;;;;;;;;;;4843343;29;19925;-92
2022/12/27 05:59:44;;;;;;;;;;;;;;;;;;4843674;29;20266;-92
2022/12/27 06:02:10;;;;;;;;;;;;;;;;;;4826883;29;19928;-91
2022/12/27 06:04:35;;;;;;;;;;;;;;;;;;4843416;29;19950;-92
2022/12/27 06:07:02;;;;;;;;;;;;;;;;;;4843357;29;20284;-90
2022/12/27 06:09:27;;;;;;;;;;;;;;;;;;4826656;29;19974;-92
2022/12/27 06:11:53;;;;;;;;;;;;;;;;;;4826876;29;19920;-92
2022/12/27 06:14:18;;;;;;;;;;;;;;;;;;4843822;29;20440;-90
2022/12/27 06:16:43;;;;;;;;;;;;;;;;;;4845341;29;19920;-91
2022/12/27 06:19:09;;;;;;;;;;;;;;;;;;4846865;29;19920;-90
2022/12/27 06:21:34;;;;;;;;;;;;;;;;;;4860163;29;19908;-91
2022/12/27 06:24:00;;;;;;;;;;;;;;;;;;4848645;29;20340;-92
2022/12/27 06:26:26;;;;;;;;;;;;;;;;;;4865972;29;19908;-93
2022/12/27 06:28:53;;;;;;;;;;;;;;;;;;4866055;29;19916;-92
2022/12/27 06:31:19;;;;;;;;;;;;;;;;;;4864804;29;19938;-91
2022/12/27 06:33:45;;;;;;;;;;;;;;;;;;4849492;29;20019;-90
2022/12/27 06:36:11;;;;;;;;;;;;;;;;;;4829597;29;19985;-89
2022/12/27 06:38:37;;;;;;;;;;;;;;;;;;4845729;29;20004;-90
2022/12/27 06:41:03;;;;;;;;;;;;;;;;;;4845712;29;20069;-91
2022/12/27 06:43:29;;;;;;;;;;;;;;;;;;4828998;29;20389;-93
2022/12/27 06:45:59;;;;;;;;;;;;;;;;;;4845780;29;19925;-90
2022/12/27 06:48:24;;;;;;;;;;;;;;;;;;4845676;29;19917;-87
2022/12/27 06:50:50;;;;;;;;;;;;;;;;;;4845692;29;19928;-89
2022/12/27 06:53:15;;;;;;;;;;;;;;;;;;4845572;29;19920;-89
2022/12/27 06:55:40;;;;;;;;;;;;;;;;;;4845489;29;20003;-89
2022/12/27 06:58:06;;;;;;;;;;;;;;;;;;4845648;29;19977;-90
2022/12/27 07:00:31;;;;;;;;;;;;;;;;;;4845589;29;19920;-89
2022/12/27 07:02:57;;;;;;;;;;;;;;;;;;4844232;29;19927;-89
2022/12/27 07:05:22;;;;;;;;;;;;;;;;;;4845528;29;19927;-92
2022/12/27 07:07:47;;;;;;;;;;;;;;;;;;4845778;29;20300;-90
2022/12/27 07:10:13;;;;;;;;;;;;;;;;;;4846186;29;20016;-88
2022/12/27 07:12:38;;;;;;;;;;;;;;;;;;4829296;29;19931;-88
2022/12/27 07:15:07;;;;;;;;;;;;;;;;;;4845705;29;19926;-88
2022/12/27 07:17:36;;;;;;;;;;;;;;;;;;4829667;29;20023;-91
2022/12/27 07:20:04;;;;;;;;;;;;;;;;;;4847389;29;19921;-90
2022/12/27 07:22:30;;;;;;;;;;;;;;;;;;4846568;29;20385;-89
2022/12/27 07:24:55;;;;;;;;;;;;;;;;;;4846923;29;19921;-89
2022/12/27 07:27:21;;;;;;;;;;;;;;;;;;4830019;29;19940;-87
2022/12/27 07:29:46;;;;;;;;;;;;;;;;;;4846231;29;19925;-86
2022/12/27 07:32:12;;;;;;;;;;;;;;;;;;4845766;29;19941;-87
2022/12/27 07:34:37;;;;;;;;;;;;;;;;;;4844955;29;20329;-92
2022/12/27 07:37:03;;;;;;;;;;;;;;;;;;4845150;29;20273;-93
2022/12/27 07:39:28;;;;;;;;;;;;;;;;;;4845207;29;19977;-88
2022/12/27 07:41:53;;;;;;;;;;;;;;;;;;4844921;29;19925;-88
2022/12/27 07:44:20;;;;;;;;;;;;;;;;;;4846625;29;19955;-95
2022/12/27 07:46:45;;;;;;;;;;;;;;;;;;4845757;29;19964;-89
2022/12/27 07:49:11;;;;;;;;;;;;;;;;;;4846458;29;19924;-92
2022/12/27 07:51:36;;;;;;;;;;;;;;;;;;4829211;29;19991;-88
2022/12/27 07:54:02;;;;;;;;;;;;;;;;;;4845879;29;20348;-91
2022/12/27 07:56:28;;;;;;;;;;;;;;;;;;4829330;29;19963;-85
2022/12/27 07:58:54;;;;;;;;;;;;;;;;;;4845360;29;20287;-88
2022/12/27 08:01:20;;;;;;;;;;;;;;;;;;4845719;29;19920;-88
2022/12/27 08:03:46;;;;;;;;;;;;;;;;;;4829501;29;19917;-89
2022/12/27 08:06:20;;;;;;;;;;;;;;;;;;4829116;29;20316;-89
2022/12/27 08:08:45;;;;;;;;;;;;;;;;;;4829188;29;20346;-90
2022/12/27 08:11:11;;;;;;;;;;;;;;;;;;4845018;29;19925;-91
2022/12/27 08:13:36;;;;;;;;;;;;;;;;;;4845713;29;19927;-90
2022/12/27 08:16:02;;;;;;;;;;;;;;;;;;4845048;29;19923;-91
2022/12/27 08:18:28;;;;;;;;;;;;;;;;;;4844563;29;19921;-91
2022/12/27 08:20:53;;;;;;;;;;;;;;;;;;4845636;29;19931;-90
2022/12/27 08:23:19;;;;;;;;;;;;;;;;;;4845531;29;19925;-89
2022/12/27 08:25:45;;;;;;;;;;;;;;;;;;4844344;29;19931;-94
2022/12/27 08:28:12;;;;;;;;;;;;;;;;;;4828328;29;20019;-87
2022/12/27 08:30:38;;;;;;;;;;;;;;;;;;4845221;29;19924;-92
2022/12/27 08:33:04;;;;;;;;;;;;;;;;;;4844195;29;19924;-91
2022/12/27 08:35:30;;;;;;;;;;;;;;;;;;4843916;29;19920;-91
2022/12/27 08:37:55;;;;;;;;;;;;;;;;;;4846723;29;19921;-90
2022/12/27 08:40:21;;;;;;;;;;;;;;;;;;4845858;29;19920;-90
2022/12/27 08:42:46;;;;;;;;;;;;;;;;;;4829543;29;19925;-90
2022/12/27 08:45:12;;;;;;;;;;;;;;;;;;4828376;29;20388;-91
2022/12/27 08:47:38;;;;;;;;;;;;;;;;;;4844590;29;19928;-90
2022/12/27 08:50:04;;;;;;;;;;;;;;;;;;4844342;29;19921;-89
2022/12/27 08:52:29;;;;;;;;;;;;;;;;;;4844445;29;19936;-90
2022/12/27 08:54:55;;;;;;;;;;;;;;;;;;4844008;29;19924;-94
2022/12/27 08:57:20;;;;;;;;;;;;;;;;;;4843725;29;19921;-92
2022/12/27 08:59:46;;;;;;;;;;;;;;;;;;4844750;29;19928;-89
2022/12/27 09:02:13;;;;;;;;;;;;;;;;;;4827683;29;20392;-92
2022/12/27 09:04:38;;;;;;;;;;;;;;;;;;5104111;23;20622;-91
2022/12/27 09:07:03;;;;;;;;;;;;;;;;;;4807617;29;19921;-86
2022/12/27 09:09:29;;;;;;;;;;;;;;;;;;4816804;29;19909;-88
2022/12/27 09:11:54;;;;;;;;;;;;;;;;;;4851476;29;19932;-89
2022/12/27 09:14:20;;;;;;;;;;;;;;;;;;4849183;29;19925;-87
2022/12/27 09:16:45;;;;;;;;;;;;;;;;;;4824804;29;20026;-87
2022/12/27 09:19:11;;;;;;;;;;;;;;;;;;4824725;29;19925;-86
2022/12/27 09:21:39;;;;;;;;;;;;;;;;;;4825604;29;20388;-88
2022/12/27 09:24:04;;;;;;;;;;;;;;;;;;4824091;29;20334;-89
2022/12/27 09:26:30;;;;;;;;;;;;;;;;;;4825993;29;20007;-88
2022/12/27 09:28:55;;;;;;;;;;;;;;;;;;4809477;29;19982;-88
2022/12/27 09:31:22;;;;;;;;;;;;;;;;;;4825552;29;19925;-85
2022/12/27 09:33:47;;;;;;;;;;;;;;;;;;4808408;29;20301;-89
2022/12/27 09:36:18;;;;;;;;;;;;;;;;;;4824521;29;19921;-86
2022/12/27 09:38:44;;;;;;;;;;;;;;;;;;4824400;29;19921;-91
2022/12/27 09:41:28;;;;;;;;;;;;;;;;;;4824274;29;19925;-86
2022/12/27 09:44:01;;;;;;;;;;;;;;;;;;4822951;29;19917;-88
2022/12/27 09:46:32;;;;;;;;;;;;;;;;;;4808338;29;20395;-89
2022/12/27 09:48:58;;;;;;;;;;;;;;;;;;4824865;29;19948;-87
2022/12/27 09:51:30;;;;;;;;;;;;;;;;;;4828142;29;19964;-87
2022/12/27 09:54:01;;;;;;;;;;;;;;;;;;4829302;29;20416;-90
2022/12/27 09:56:28;;;;;;;;;;;;;;;;;;4830076;29;19921;-89
2022/12/27 09:58:58;;;;;;;;;;;;;;;;;;4815569;29;20007;-87
2022/12/27 10:01:29;;;;;;;;;;;;;;;;;;4813664;29;19925;-92
2022/12/27 10:03:55;;;;;;;;;;;;;;;;;;4831376;29;19954;-88
2022/12/27 10:06:50;;;;;;;;;;;;;;;;;;4833677;29;19928;-86
2022/12/27 10:09:15;;;;;;;;;;;;;;;;;;4809499;29;19928;-94
2022/12/27 10:11:40;;;;;;;;;;;;;;;;;;4832987;29;19925;-94
2022/12/27 10:14:17;;;;;;;;;;;;;;;;;;4838419;29;19984;-94
2022/12/27 10:17:02;;;;;;;;;;;;;;;;;;4835941;29;19921;-94
2022/12/27 10:19:31;;;;;;;;;;;;;;;;;;4834030;29;20522;-93
2022/12/27 10:22:14;;;;;;;;;;;;;;;;;;4836464;29;19928;-89
2022/12/27 10:24:49;;;;;;;;;;;;;;;;;;4818164;29;19920;-91
2022/12/27 10:27:18;;;;;;;;;;;;;;;;;;4836707;29;19928;-93
2022/12/27 10:29:44;;;;;;;;;;;;;;;;;;4830691;29;19917;-93
2022/12/27 10:32:11;;;;;;;;;;;;;;;;;;4831160;29;20408;-93
2022/12/27 10:34:36;;;;;;;;;;;;;;;;;;4812406;29;19917;-91
2022/12/27 10:37:02;;;;;;;;;;;;;;;;;;4828994;29;19967;-87
2022/12/27 10:39:31;;;;;;;;;;;;;;;;;;4830849;29;19987;-86
2022/12/27 10:42:14;;;;;;;;;;;;;;;;;;4829832;29;20368;-90
2022/12/27 10:44:40;;;;;;;;;;;;;;;;;;4829778;29;20385;-89
2022/12/27 10:47:05;;;;;;;;;;;;;;;;;;4829243;29;20019;-87
2022/12/27 10:49:32;;;;;;;;;;;;;;;;;;4813042;29;19925;-89
2022/12/27 10:52:06;;;;;;;;;;;;;;;;;;4830484;29;19925;-92
2022/12/27 10:54:34;;;;;;;;;;;;;;;;;;4830054;29;19925;-88
2022/12/27 10:57:19;;;;;;;;;;;;;;;;;;4831406;29;19921;-90
2022/12/27 10:59:45;;;;;;;;;;;;;;;;;;4824770;29;19928;-91
2022/12/27 11:02:13;;;;;;;;;;;;;;;;;;4814091;29;19925;-92
2022/12/27 11:04:53;;;;;;;;;;;;;;;;;;4837777;29;19932;-89
2022/12/27 11:07:19;;;;;;;;;;;;;;;;;;4831118;29;19920;-92
2022/12/27 11:09:44;;;;;;;;;;;;;;;;;;4816389;29;19936;-92
2022/12/27 11:12:10;;;;;;;;;;;;;;;;;;4833869;29;19920;-90
2022/12/27 11:14:37;;;;;;;;;;;;;;;;;;4830609;29;19925;-88
2022/12/27 11:17:09;;;;;;;;;;;;;;;;;;4813234;29;20046;-87
2022/12/27 11:19:36;;;;;;;;;;;;;;;;;;4828947;29;20372;-91
2022/12/27 11:22:04;;;;;;;;;;;;;;;;;;4831685;29;19931;-88
2022/12/27 11:24:29;;;;;;;;;;;;;;;;;;4817786;29;19921;-93
2022/12/27 11:27:00;;;;;;;;;;;;;;;;;;4824989;29;20383;-94
2022/12/27 11:29:27;;;;;;;;;;;;;;;;;;4836645;29;19945;-93
2022/12/27 11:31:53;;;;;;;;;;;;;;;;;;4818848;29;19946;-94
2022/12/27 11:34:23;;;;;;;;;;;;;;;;;;4819292;29;19929;-92
2022/12/27 11:36:49;;;;;;;;;;;;;;;;;;4824728;29;19992;-93
2022/12/27 11:39:34;;;;;;;;;;;;;;;;;;4840778;29;19929;-94
2022/12/27 11:42:00;;;;;;;;;;;;;;;;;;4838643;29;20376;-94
2022/12/27 11:44:31;;;;;;;;;;;;;;;;;;4814856;29;19925;-93
2022/12/27 11:47:02;;;;;;;;;;;;;;;;;;4815366;29;19943;-92
2022/12/27 11:49:51;;;;;;;;;;;;;;;;;;4817083;29;20335;-93
2022/12/27 11:52:32;;;;;;;;;;;;;;;;;;4821899;29;19920;-92
2022/12/27 11:55:01;;;;;;;;;;;;;;;;;;4827740;29;19925;-93
2022/12/27 11:57:38;;;;;;;;;;;;;;;;;;4820478;29;20434;-93
2022/12/27 12:00:25;;;;;;;;;;;;;;;;;;4815468;29;20376;-94
2022/12/27 12:02:50;;;;;;;;;;;;;;;;;;4813611;29;19929;-93
2022/12/27 12:05:22;;;;;;;;;;;;;;;;;;4833211;29;19931;-93
2022/12/27 12:08:07;;;;;;;;;;;;;;;;;;4825863;29;19921;-94
2022/12/27 12:10:45;;;;;;;;;;;;;;;;;;4834243;29;19917;-93
2022/12/27 12:13:46;;;;;;;;;;;;;;;;;;4830640;29;19943;-94
2022/12/27 12:16:20;;;;;;;;;;;;;;;;;;4817847;29;20019;-94
2022/12/27 12:18:59;;;;;;;;;;;;;;;;;;4812511;29;19992;-95
2022/12/27 12:21:34;;;;;;;;;;;;;;;;;;4829343;29;19998;-93
2022/12/27 12:23:59;;;;;;;;;;;;;;;;;;4832082;29;19928;-93
2022/12/27 12:26:25;;;;;;;;;;;;;;;;;;4818994;29;19921;-93
2022/12/27 12:29:06;;;;;;;;;;;;;;;;;;4813528;29;19921;-94
2022/12/27 12:31:35;;;;;;;;;;;;;;;;;;4811326;29;19920;-95
2022/12/27 12:34:27;;;;;;;;;;;;;;;;;;4811591;29;19921;-94
2022/12/27 12:37:17;;;;;;;;;;;;;;;;;;4807274;29;19964;-93
2022/12/27 12:39:52;;;;;;;;;;;;;;;;;;4824602;29;19971;-92
2022/12/27 12:42:20;;;;;;;;;;;;;;;;;;4833170;29;19921;-94
2022/12/27 12:44:55;;;;;;;;;;;;;;;;;;4829801;29;19928;-93
2022/12/27 12:47:39;;;;;;;;;;;;;;;;;;4812320;29;19952;-92
2022/12/27 12:50:07;;;;;;;;;;;;;;;;;;4831289;29;19924;-92
2022/12/27 12:53:13;;;;;;;;;;;;;;;;;;;;;
2022/12/27 13:01:12;;;;;;;;;;;;;;;;;;4829368;29;19933;-93
2022/12/27 13:04:00;;;;;;;;;;;;;;;;;;4831414;29;19928;-90
2022/12/27 13:06:44;;;;;;;;;;;;;;;;;;4831064;29;19950;-92
2022/12/27 13:09:21;;;;;;;;;;;;;;;;;;4845924;29;19950;-87
2022/12/27 13:11:49;;;;;;;;;;;;;;;;;;4847634;29;19921;-91
2022/12/27 13:14:38;;;;;;;;;;;;;;;;;;4838454;29;19932;-89
2022/12/27 13:17:03;;;;;;;;;;;;;;;;;;4831835;29;19928;-91
2022/12/27 13:19:29;;;;;;;;;;;;;;;;;;4828040;29;19921;-91
2022/12/27 13:22:00;;;;;;;;;;;;;;;;;;4826900;29;19921;-91
2022/12/27 13:24:26;;;;;;;;;;;;;;;;;;4826156;29;20408;-92
2022/12/27 13:26:56;;;;;;;;;;;;;;;;;;4825371;29;19952;-90
2022/12/27 13:29:39;;;;;;;;;;;;;;;;;;4827284;29;19946;-92
2022/12/27 13:32:04;;;;;;;;;;;;;;;;;;4825992;29;19925;-89
2022/12/27 13:34:36;;;;;;;;;;;;;;;;;;4825097;29;19928;-91
2022/12/27 13:37:20;;;;;;;;;;;;;;;;;;4826897;29;19921;-89
2022/12/27 13:40:05;;;;;;;;;;;;;;;;;;4827167;29;19920;-87
2022/12/27 13:42:38;;;;;;;;;;;;;;;;;;4830530;29;19921;-89
2022/12/27 13:45:09;;;;;;;;;;;;;;;;;;4829194;29;19967;-91
2022/12/27 13:47:38;;;;;;;;;;;;;;;;;;4828026;29;20040;-92
2022/12/27 13:50:10;;;;;;;;;;;;;;;;;;4830450;29;20388;-92
2022/12/27 13:52:35;;;;;;;;;;;;;;;;;;4826413;29;19956;-92
2022/12/27 13:55:33;;;;;;;;;;;;;;;;;;4828082;29;19932;-93
2022/12/27 13:58:05;;;;;;;;;;;;;;;;;;4783371;29;19921;-91
2022/12/27 14:00:53;;;;;;;;;;;;;;;;;;4829349;29;19924;-92
2022/12/27 14:03:41;;;;;;;;;;;;;;;;;;4826071;29;19921;-94
2022/12/27 14:06:12;;;;;;;;;;;;;;;;;;4830979;29;19921;-92
2022/12/27 14:08:46;;;;;;;;;;;;;;;;;;4829467;29;19977;-94
2022/12/27 14:11:31;;;;;;;;;;;;;;;;;;4828334;29;19921;-91
2022/12/27 14:13:57;;;;;;;;;;;;;;;;;;4830884;29;19927;-91
2022/12/27 14:16:38;;;;;;;;;;;;;;;;;;4829862;29;19920;-91
2022/12/27 14:19:14;;;;;;;;;;;;;;;;;;4829477;29;19928;-88
2022/12/27 14:21:58;;;;;;;;;;;;;;;;;;4829874;29;19921;-91
2022/12/27 14:24:42;;;;;;;;;;;;;;;;;;4828920;29;19948;-92
2022/12/27 14:27:08;;;;;;;;;;;;;;;;;;4832324;29;19928;-91
2022/12/27 14:29:52;;;;;;;;;;;;;;;;;;4830692;29;19921;-93
2022/12/27 14:32:23;;;;;;;;;;;;;;;;;;4830928;29;19921;-91
2022/12/27 14:34:57;;;;;;;;;;;;;;;;;;4832827;29;19921;-92
2022/12/27 14:37:23;;;;;;;;;;;;;;;;;;4817895;29;19924;-92
2022/12/27 14:39:55;;;;;;;;;;;;;;;;;;4833474;29;19928;-88
2022/12/27 14:42:42;;;;;;;;;;;;;;;;;;4828542;29;19924;-92
2022/12/27 14:45:08;;;;;;;;;;;;;;;;;;4830869;29;19917;-92
2022/12/27 14:47:36;;;;;;;;;;;;;;;;;;4831827;29;19928;-94
2022/12/27 14:50:21;;;;;;;;;;;;;;;;;;4831315;29;19921;-91
2022/12/27 14:53:14;;;;;;;;;;;;;;;;;;4829512;29;20019;-89
2022/12/27 14:55:58;;;;;;;;;;;;;;;;;;4831204;29;19987;-90
2022/12/27 14:58:35;;;;;;;;;;;;;;;;;;4830453;29;20380;-86
2022/12/27 15:01:08;;;;;;;;;;;;;;;;;;4813127;29;20377;-90
2022/12/27 15:03:53;;;;;;;;;;;;;;;;;;4829604;29;19973;-92
2022/12/27 15:06:21;;;;;;;;;;;;;;;;;;4831263;29;19964;-93
2022/12/27 15:08:56;;;;;;;;;;;;;;;;;;4830129;29;20369;-89
2022/12/27 15:11:28;;;;;;;;;;;;;;;;;;4830381;29;19932;-91
2022/12/27 15:14:19;;;;;;;;;;;;;;;;;;4830606;29;19970;-92
2022/12/27 15:17:05;;;;;;;;;;;;;;;;;;4829975;29;19984;-93
2022/12/27 15:19:42;;;;;;;;;;;;;;;;;;4829536;29;19952;-93
2022/12/27 15:22:29;;;;;;;;;;;;;;;;;;4828723;29;20381;-93
2022/12/27 15:25:03;;;;;;;;;;;;;;;;;;4830688;29;19924;-91
2022/12/27 15:27:38;;;;;;;;;;;;;;;;;;4825469;29;19927;-93
2022/12/27 15:30:22;;;;;;;;;;;;;;;;;;4827298;29;19921;-92
2022/12/27 15:32:54;;;;;;;;;;;;;;;;;;4831039;29;19932;-94
2022/12/27 15:35:38;;;;;;;;;;;;;;;;;;4831732;29;19924;-91
2022/12/27 15:38:09;;;;;;;;;;;;;;;;;;4830839;29;19944;-93
2022/12/27 15:40:38;;;;;;;;;;;;;;;;;;4827034;29;19925;-93
2022/12/27 15:43:14;;;;;;;;;;;;;;;;;;4827188;29;19921;-93
2022/12/27 15:45:43;;;;;;;;;;;;;;;;;;4827609;29;19970;-93
2022/12/27 15:48:11;;;;;;;;;;;;;;;;;;4827709;29;19921;-93
2022/12/27 15:50:42;;;;;;;;;;;;;;;;;;4828187;29;19928;-94
2022/12/27 15:53:26;;;;;;;;;;;;;;;;;;4828713;29;19928;-93
2022/12/27 15:56:11;;;;;;;;;;;;;;;;;;4829091;29;19924;-92
2022/12/27 15:58:36;;;;;;;;;;;;;;;;;;4829240;29;19921;-93
2022/12/27 16:01:14;;;;;;;;;;;;;;;;;;4829194;29;19925;-92
2022/12/27 16:03:41;;;;;;;;;;;;;;;;;;4827194;29;19932;-92
2022/12/27 16:06:08;;;;;;;;;;;;;;;;;;4827327;29;19925;-92
2022/12/27 16:08:39;;;;;;;;;;;;;;;;;;4826978;29;19921;-93
2022/12/27 16:11:09;;;;;;;;;;;;;;;;;;4825019;29;20041;-92
2022/12/27 16:13:36;;;;;;;;;;;;;;;;;;4822456;29;19968;-89
2022/12/27 16:16:02;;;;;;;;;;;;;;;;;;4826757;29;20011;-89
2022/12/27 16:18:27;;;;;;;;;;;;;;;;;;4829987;29;20346;-88
2022/12/27 16:23:30;;;;;;;;;;;;;;;;;;4863253;23;20422;-88
2022/12/27 16:26:04;;;;;;;;;;;;;;;;;;4829556;29;19925;-86
2022/12/27 16:28:30;;;;;;;;;;;;;;;;;;4823584;29;19931;-86
2022/12/27 16:31:00;;;;;;;;;;;;;;;;;;4823631;29;19924;-87
2022/12/27 16:33:26;;;;;;;;;;;;;;;;;;4836753;29;19936;-86
2022/12/27 16:36:10;;;;;;;;;;;;;;;;;;4816561;29;19921;-87
2022/12/27 16:38:36;;;;;;;;;;;;;;;;;;4825593;29;19925;-87
2022/12/27 16:41:10;;;;;;;;;;;;;;;;;;4826329;29;19928;-87
2022/12/27 16:43:50;;;;;;;;;;;;;;;;;;4825598;29;19921;-86
2022/12/27 16:46:29;;;;;;;;;;;;;;;;;;4808929;29;20015;-85
2022/12/27 16:49:12;;;;;;;;;;;;;;;;;;4825394;29;19931;-86
2022/12/27 16:52:10;;;;;;;;;;;;;;;;;;4835628;29;19924;-86
2022/12/27 16:54:44;;;;;;;;;;;;;;;;;;4812703;29;19928;-85
2022/12/27 16:57:28;;;;;;;;;;;;;;;;;;4843893;29;19942;-86
2022/12/27 16:59:58;;;;;;;;;;;;;;;;;;4843220;29;19964;-86
2022/12/27 17:02:29;;;;;;;;;;;;;;;;;;4843710;29;20377;-84
2022/12/27 17:04:58;;;;;;;;;;;;;;;;;;4843598;29;19920;-85
2022/12/27 17:07:52;;;;;;;;;;;;;;;;;;4843617;29;19967;-85
2022/12/27 17:10:21;;;;;;;;;;;;;;;;;;4831378;29;19924;-86
2022/12/27 17:12:50;;;;;;;;;;;;;;;;;;4827384;29;19925;-85
2022/12/27 17:15:16;;;;;;;;;;;;;;;;;;4826917;29;19924;-85
2022/12/27 17:17:42;;;;;;;;;;;;;;;;;;4843175;29;19927;-86
2022/12/27 17:20:14;;;;;;;;;;;;;;;;;;4845536;29;19920;-85
2022/12/27 17:22:41;;;;;;;;;;;;;;;;;;4845799;29;20441;-86
2022/12/27 17:25:12;;;;;;;;;;;;;;;;;;4848748;29;19932;-86
2022/12/27 17:27:50;;;;;;;;;;;;;;;;;;4864321;29;19944;-85
2022/12/27 17:30:24;;;;;;;;;;;;;;;;;;4844052;29;19925;-86
2022/12/27 17:32:55;;;;;;;;;;;;;;;;;;4982822;23;20059;-86
2022/12/27 17:35:23;;;;;;;;;;;;;;;;;;4842936;29;20121;-88
2022/12/27 17:38:04;;;;;;;;;;;;;;;;;;4842665;29;19924;-87
2022/12/27 17:40:39;;;;;;;;;;;;;;;;;;4842801;29;19921;-86
2022/12/27 17:46:20;;;;;;;;;;;;;;;;;;4827053;29;20430;-87
2022/12/27 17:48:46;;;;;;;;;;;;;;;;;;4843004;29;19929;-87
2022/12/27 17:51:13;;;;;;;;;;;;;;;;;;4843366;29;19925;-85
2022/12/27 17:59:28;;;;;;;;;;;;;;;;;;4822070;29;19925;-86
2022/12/27 18:01:56;;;;;;;;;;;;;;;;;;4843236;29;20364;-86
2022/12/27 18:04:23;;;;;;;;;;;;;;;;;;4827178;29;19917;-87
2022/12/27 18:06:52;;;;;;;;;;;;;;;;;;4843142;29;20334;-87
2022/12/27 18:09:38;;;;;;;;;;;;;;;;;;4826580;29;19924;-87
2022/12/27 18:12:09;;;;;;;;;;;;;;;;;;4827064;29;19920;-86
2022/12/27 18:14:35;;;;;;;;;;;;;;;;;;4846712;29;20440;-87
2022/12/27 18:17:00;;;;;;;;;;;;;;;;;;4830226;29;19973;-84
2022/12/27 18:19:30;;;;;;;;;;;;;;;;;;4829969;29;20368;-87
2022/12/27 18:21:57;;;;;;;;;;;;;;;;;;4846792;29;20269;-86
2022/12/27 18:24:24;;;;;;;;;;;;;;;;;;4846497;29;20401;-87
2022/12/27 18:26:58;;;;;;;;;;;;;;;;;;4846384;29;20411;-86
2022/12/27 18:29:23;;;;;;;;;;;;;;;;;;4846280;29;20332;-88
2022/12/27 18:31:51;;;;;;;;;;;;;;;;;;4829912;29;19928;-87
2022/12/27 18:34:26;;;;;;;;;;;;;;;;;;4846149;29;19924;-87
2022/12/27 18:37:00;;;;;;;;;;;;;;;;;;4846957;29;19968;-88
2022/12/27 18:39:31;;;;;;;;;;;;;;;;;;4829658;29;19925;-86
2022/12/27 18:41:57;;;;;;;;;;;;;;;;;;4846224;29;19920;-85
2022/12/27 18:44:24;;;;;;;;;;;;;;;;;;4846189;29;19976;-87
2022/12/27 18:46:54;;;;;;;;;;;;;;;;;;4846153;29;19924;-87
2022/12/27 18:49:22;;;;;;;;;;;;;;;;;;4829350;29;19924;-86
2022/12/27 18:51:48;;;;;;;;;;;;;;;;;;4846067;29;19928;-88
2022/12/27 18:54:28;;;;;;;;;;;;;;;;;;4845873;29;20015;-88
2022/12/27 18:56:55;;;;;;;;;;;;;;;;;;4846219;29;20395;-86
2022/12/27 18:59:25;;;;;;;;;;;;;;;;;;4845880;29;19928;-87
2022/12/27 19:01:51;;;;;;;;;;;;;;;;;;4845937;29;20012;-86
2022/12/27 19:04:17;;;;;;;;;;;;;;;;;;4845703;29;19949;-86